sensor_id;sensor_type;location;lat;lon;timestamp;pressure;altitude;pressure_sealevel;temperature;humidity
69848;BME280;57143;55.940;37.496;2023-08-06T00:02:19;100053.28;;;22.98;100.00
69848;BME280;57143;55.940;37.496;2023-08-06T00:04:47;100050.00;;;22.90;100.00
69848;BME280;57143;55.940;37.496;2023-08-06T00:07:14;100043.38;;;22.92;100.00
69848;BME280;57143;55.940;37.496;2023-08-06T00:09:41;100049.41;;;22.99;100.00
69848;BME280;57143;55.940;37.496;2023-08-06T00:12:09;100038.53;;;23.07;100.00
69848;BME280;57143;55.940;37.496;2023-08-06T00:14:37;100034.91;;;23.12;100.00
69848;BME280;57143;55.940;37.496;2023-08-06T00:17:04;100036.34;;;23.04;100.00
69848;BME280;57143;55.940;37.496;2023-08-06T00:19:31;100019.56;;;22.96;100.00
69848;BME280;57143;55.940;37.496;2023-08-06T00:21:58;100022.41;;;22.85;100.00
69848;BME280;57143;55.940;37.496;2023-08-06T00:24:27;100028.38;;;22.98;100.00
69848;BME280;57143;55.940;37.496;2023-08-06T00:26:54;100031.16;;;22.98;100.00
69848;BME280;57143;55.940;37.496;2023-08-06T00:29:23;100018.06;;;22.79;100.00
69848;BME280;57143;55.940;37.496;2023-08-06T00:31:50;100016.63;;;22.82;100.00
69848;BME280;57143;55.940;37.496;2023-08-06T00:34:17;100018.63;;;22.76;100.00
69848;BME280;57143;55.940;37.496;2023-08-06T00:36:44;100002.97;;;22.67;100.00
69848;BME280;57143;55.940;37.496;2023-08-06T00:39:12;99980.66;;;22.58;100.00
69848;BME280;57143;55.940;37.496;2023-08-06T00:41:39;99972.16;;;22.45;100.00
69848;BME280;57143;55.940;37.496;2023-08-06T00:44:07;99926.88;;;22.41;100.00
69848;BME280;57143;55.940;37.496;2023-08-06T00:46:36;99931.28;;;22.42;100.00
69848;BME280;57143;55.940;37.496;2023-08-06T00:49:03;99931.91;;;22.34;100.00
69848;BME280;57143;55.940;37.496;2023-08-06T00:51:32;99939.63;;;22.37;100.00
69848;BME280;57143;55.940;37.496;2023-08-06T00:53:59;99915.72;;;22.22;100.00
69848;BME280;57143;55.940;37.496;2023-08-06T00:56:27;99912.66;;;22.24;100.00
69848;BME280;57143;55.940;37.496;2023-08-06T00:58:55;99903.06;;;22.16;100.00
69848;BME280;57143;55.940;37.496;2023-08-06T01:01:22;99911.34;;;22.16;100.00
69848;BME280;57143;55.940;37.496;2023-08-06T01:03:51;99906.94;;;22.15;100.00
69848;BME280;57143;55.940;37.496;2023-08-06T01:06:28;99873.41;;;21.98;100.00
69848;BME280;57143;55.940;37.496;2023-08-06T01:09:03;99893.97;;;22.16;100.00
69848;BME280;57143;55.940;37.496;2023-08-06T01:11:42;99887.38;;;22.12;100.00
69848;BME280;57143;55.940;37.496;2023-08-06T01:14:21;99883.78;;;22.11;100.00
69848;BME280;57143;55.940;37.496;2023-08-06T01:16:50;99877.97;;;22.13;100.00
69848;BME280;57143;55.940;37.496;2023-08-06T01:19:19;99870.81;;;22.12;100.00
69848;BME280;57143;55.940;37.496;2023-08-06T01:21:48;99869.13;;;22.11;100.00
69848;BME280;57143;55.940;37.496;2023-08-06T01:24:15;99855.72;;;21.99;100.00
69848;BME280;57143;55.940;37.496;2023-08-06T01:26:47;99854.38;;;21.97;100.00
69848;BME280;57143;55.940;37.496;2023-08-06T01:29:21;99835.09;;;21.87;100.00
69848;BME280;57143;55.940;37.496;2023-08-06T01:31:51;99837.31;;;21.90;100.00
69848;BME280;57143;55.940;37.496;2023-08-06T01:34:21;99811.63;;;21.89;100.00
69848;BME280;57143;55.940;37.496;2023-08-06T01:36:52;99807.75;;;21.90;100.00
69848;BME280;57143;55.940;37.496;2023-08-06T01:39:19;99809.75;;;21.85;100.00
69848;BME280;57143;55.940;37.496;2023-08-06T01:41:47;99806.16;;;21.84;100.00
69848;BME280;57143;55.940;37.496;2023-08-06T01:44:13;99814.72;;;21.83;100.00
69848;BME280;57143;55.940;37.496;2023-08-06T01:46:41;99792.41;;;21.79;100.00
69848;BME280;57143;55.940;37.496;2023-08-06T01:49:08;99772.91;;;21.65;100.00
69848;BME280;57143;55.940;37.496;2023-08-06T01:51:35;99782.72;;;21.82;100.00
69848;BME280;57143;55.940;37.496;2023-08-06T01:54:03;99768.91;;;21.82;100.00
69848;BME280;57143;55.940;37.496;2023-08-06T01:56:31;99770.53;;;21.88;100.00
69848;BME280;57143;55.940;37.496;2023-08-06T01:58:58;99748.75;;;21.86;100.00
69848;BME280;57143;55.940;37.496;2023-08-06T02:01:25;99780.88;;;22.01;100.00
69848;BME280;57143;55.940;37.496;2023-08-06T02:03:52;99777.28;;;22.05;100.00
69848;BME280;57143;55.940;37.496;2023-08-06T02:06:19;99788.69;;;22.22;100.00
69848;BME280;57143;55.940;37.496;2023-08-06T02:08:46;99792.47;;;22.60;100.00
69848;BME280;57143;55.940;37.496;2023-08-06T02:11:15;99793.97;;;22.95;100.00
69848;BME280;57143;55.940;37.496;2023-08-06T02:13:42;99808.75;;;23.27;100.00
69848;BME280;57143;55.940;37.496;2023-08-06T02:16:09;99828.59;;;23.53;100.00
69848;BME280;57143;55.940;37.496;2023-08-06T02:18:37;99818.94;;;23.69;100.00
69848;BME280;57143;55.940;37.496;2023-08-06T02:21:04;99847.78;;;24.19;100.00
69848;BME280;57143;55.940;37.496;2023-08-06T02:23:31;99861.81;;;24.54;100.00
69848;BME280;57143;55.940;37.496;2023-08-06T02:25:59;99874.75;;;24.77;100.00
69848;BME280;57143;55.940;37.496;2023-08-06T02:28:28;99878.34;;;25.05;100.00
69848;BME280;57143;55.940;37.496;2023-08-06T02:30:56;99876.19;;;25.43;100.00
69848;BME280;57143;55.940;37.496;2023-08-06T02:33:23;99891.13;;;25.82;100.00
69848;BME280;57143;55.940;37.496;2023-08-06T02:35:50;99901.69;;;26.07;100.00
69848;BME280;57143;55.940;37.496;2023-08-06T02:38:17;99916.19;;;26.27;100.00
69848;BME280;57143;55.940;37.496;2023-08-06T02:40:45;99930.69;;;26.59;100.00
69848;BME280;57143;55.940;37.496;2023-08-06T02:43:12;99934.63;;;26.89;100.00
69848;BME280;57143;55.940;37.496;2023-08-06T02:45:41;99941.25;;;27.01;100.00
69848;BME280;57143;55.940;37.496;2023-08-06T02:48:09;99932.59;;;27.03;100.00
69848;BME280;57143;55.940;37.496;2023-08-06T02:50:39;99940.00;;;27.47;100.00
69848;BME280;57143;55.940;37.496;2023-08-06T02:53:07;99941.84;;;27.68;100.00
69848;BME280;57143;55.940;37.496;2023-08-06T02:55:34;99945.88;;;27.93;100.00
69848;BME280;57143;55.940;37.496;2023-08-06T02:58:02;99953.47;;;28.09;100.00
69848;BME280;57143;55.940;37.496;2023-08-06T03:00:29;99952.63;;;28.43;100.00
69848;BME280;57143;55.940;37.496;2023-08-06T03:02:58;99962.47;;;28.23;100.00
69848;BME280;57143;55.940;37.496;2023-08-06T03:05:25;99968.84;;;28.41;100.00
69848;BME280;57143;55.940;37.496;2023-08-06T03:07:51;99978.38;;;28.74;100.00
69848;BME280;57143;55.940;37.496;2023-08-06T03:10:18;99991.78;;;29.15;100.00
69848;BME280;57143;55.940;37.496;2023-08-06T03:12:45;100004.75;;;29.19;100.00
69848;BME280;57143;55.940;37.496;2023-08-06T03:15:13;100007.41;;;29.53;100.00
69848;BME280;57143;55.940;37.496;2023-08-06T03:17:40;100019.81;;;29.82;100.00
69848;BME280;57143;55.940;37.496;2023-08-06T03:20:09;100015.31;;;29.89;100.00
69848;BME280;57143;55.940;37.496;2023-08-06T03:22:37;100036.09;;;30.09;100.00
69848;BME280;57143;55.940;37.496;2023-08-06T03:25:05;100046.53;;;30.29;100.00
69848;BME280;57143;55.940;37.496;2023-08-06T03:27:32;100058.06;;;30.27;100.00
69848;BME280;57143;55.940;37.496;2023-08-06T03:29:59;100060.06;;;30.68;100.00
69848;BME280;57143;55.940;37.496;2023-08-06T03:32:30;100072.56;;;30.91;100.00
69848;BME280;57143;55.940;37.496;2023-08-06T03:34:58;100086.41;;;31.08;100.00
69848;BME280;57143;55.940;37.496;2023-08-06T03:37:26;100098.25;;;30.93;100.00
69848;BME280;57143;55.940;37.496;2023-08-06T03:39:53;100103.06;;;31.25;100.00
69848;BME280;57143;55.940;37.496;2023-08-06T03:42:21;100114.50;;;31.53;100.00
69848;BME280;57143;55.940;37.496;2023-08-06T03:44:48;100125.81;;;31.56;100.00
69848;BME280;57143;55.940;37.496;2023-08-06T03:47:15;100129.88;;;31.47;100.00
69848;BME280;57143;55.940;37.496;2023-08-06T03:49:42;100138.13;;;31.64;100.00
69848;BME280;57143;55.940;37.496;2023-08-06T03:52:10;100127.59;;;31.28;100.00
69848;BME280;57143;55.940;37.496;2023-08-06T03:54:38;100145.69;;;31.63;100.00
69848;BME280;57143;55.940;37.496;2023-08-06T03:57:06;100155.88;;;31.68;100.00
69848;BME280;57143;55.940;37.496;2023-08-06T03:59:33;100160.44;;;31.73;100.00
69848;BME280;57143;55.940;37.496;2023-08-06T04:02:00;100173.06;;;32.11;100.00
69848;BME280;57143;55.940;37.496;2023-08-06T04:04:27;100189.66;;;32.16;100.00
69848;BME280;57143;55.940;37.496;2023-08-06T04:06:54;100200.59;;;32.42;100.00
69848;BME280;57143;55.940;37.496;2023-08-06T04:09:22;100213.22;;;32.60;100.00
69848;BME280;57143;55.940;37.496;2023-08-06T04:11:50;100218.13;;;32.75;100.00
69848;BME280;57143;55.940;37.496;2023-08-06T04:14:17;100214.84;;;32.49;100.00
69848;BME280;57143;55.940;37.496;2023-08-06T04:16:45;100211.56;;;32.71;100.00
69848;BME280;57143;55.940;37.496;2023-08-06T04:19:12;100216.94;;;33.00;100.00
69848;BME280;57143;55.940;37.496;2023-08-06T04:21:39;100212.16;;;33.40;100.00
69848;BME280;57143;55.940;37.496;2023-08-06T04:24:06;100219.78;;;33.40;100.00
69848;BME280;57143;55.940;37.496;2023-08-06T04:26:33;100215.78;;;33.01;100.00
69848;BME280;57143;55.940;37.496;2023-08-06T04:29:02;100202.75;;;33.09;100.00
69848;BME280;57143;55.940;37.496;2023-08-06T04:31:29;100211.63;;;33.23;100.00
69848;BME280;57143;55.940;37.496;2023-08-06T04:33:56;100207.78;;;33.27;100.00
69848;BME280;57143;55.940;37.496;2023-08-06T04:36:24;100192.47;;;33.40;100.00
69848;BME280;57143;55.940;37.496;2023-08-06T04:38:51;100166.34;;;33.52;100.00
69848;BME280;57143;55.940;37.496;2023-08-06T04:41:18;100173.63;;;33.41;100.00
69848;BME280;57143;55.940;37.496;2023-08-06T04:43:45;100174.94;;;33.43;100.00
69848;BME280;57143;55.940;37.496;2023-08-06T04:46:13;100170.66;;;33.22;100.00
69848;BME280;57143;55.940;37.496;2023-08-06T04:48:41;100159.00;;;33.47;100.00
69848;BME280;57143;55.940;37.496;2023-08-06T04:51:08;100149.28;;;33.33;100.00
69848;BME280;57143;55.940;37.496;2023-08-06T04:53:35;100132.59;;;33.52;100.00
69848;BME280;57143;55.940;37.496;2023-08-06T04:56:03;100119.72;;;33.94;100.00
69848;BME280;57143;55.940;37.496;2023-08-06T04:58:30;100100.00;;;33.78;100.00
69848;BME280;57143;55.940;37.496;2023-08-06T05:00:57;100091.81;;;33.73;100.00
69848;BME280;57143;55.940;37.496;2023-08-06T05:03:26;100083.38;;;33.73;100.00
69848;BME280;57143;55.940;37.496;2023-08-06T05:05:53;100081.91;;;33.64;100.00
69848;BME280;57143;55.940;37.496;2023-08-06T05:08:20;100073.06;;;33.93;100.00
69848;BME280;57143;55.940;37.496;2023-08-06T05:10:48;100062.13;;;33.76;100.00
69848;BME280;57143;55.940;37.496;2023-08-06T05:13:15;100046.38;;;34.03;100.00
69848;BME280;57143;55.940;37.496;2023-08-06T05:15:42;100016.22;;;34.19;100.00
69848;BME280;57143;55.940;37.496;2023-08-06T05:18:11;99976.44;;;34.20;100.00
69848;BME280;57143;55.940;37.496;2023-08-06T05:20:41;99973.41;;;33.94;100.00
69848;BME280;57143;55.940;37.496;2023-08-06T05:23:08;99977.31;;;34.24;100.00
69848;BME280;57143;55.940;37.496;2023-08-06T05:25:36;99960.75;;;34.38;100.00
69848;BME280;57143;55.940;37.496;2023-08-06T05:28:03;99910.16;;;34.42;100.00
69848;BME280;57143;55.940;37.496;2023-08-06T05:30:31;99855.19;;;34.89;100.00
69848;BME280;57143;55.940;37.496;2023-08-06T05:32:58;99883.00;;;34.49;100.00
69848;BME280;57143;55.940;37.496;2023-08-06T05:35:25;99858.06;;;34.70;100.00
69848;BME280;57143;55.940;37.496;2023-08-06T05:37:54;99877.06;;;34.54;100.00
69848;BME280;57143;55.940;37.496;2023-08-06T05:40:21;99892.75;;;34.55;100.00
69848;BME280;57143;55.940;37.496;2023-08-06T05:42:48;99853.59;;;34.69;100.00
69848;BME280;57143;55.940;37.496;2023-08-06T05:45:15;99868.19;;;34.75;100.00
69848;BME280;57143;55.940;37.496;2023-08-06T05:47:43;99790.63;;;35.04;100.00
69848;BME280;57143;55.940;37.496;2023-08-06T05:50:10;99801.44;;;34.98;100.00
69848;BME280;57143;55.940;37.496;2023-08-06T05:52:37;99788.75;;;34.88;100.00
69848;BME280;57143;55.940;37.496;2023-08-06T05:55:07;99754.59;;;35.16;100.00
69848;BME280;57143;55.940;37.496;2023-08-06T05:57:34;99709.50;;;35.42;100.00
69848;BME280;57143;55.940;37.496;2023-08-06T06:00:02;99659.09;;;35.70;100.00
69848;BME280;57143;55.940;37.496;2023-08-06T06:02:32;99621.28;;;35.78;100.00
69848;BME280;57143;55.940;37.496;2023-08-06T06:04:59;99591.34;;;35.67;100.00
69848;BME280;57143;55.940;37.496;2023-08-06T06:07:26;99614.97;;;35.55;100.00
69848;BME280;57143;55.940;37.496;2023-08-06T06:09:53;99647.25;;;35.28;100.00
69848;BME280;57143;55.940;37.496;2023-08-06T06:12:22;99598.94;;;35.30;100.00
69848;BME280;57143;55.940;37.496;2023-08-06T06:14:51;99627.38;;;35.18;100.00
69848;BME280;57143;55.940;37.496;2023-08-06T06:17:18;99590.53;;;35.33;100.00
69848;BME280;57143;55.940;37.496;2023-08-06T06:19:46;99488.50;;;35.57;100.00
69848;BME280;57143;55.940;37.496;2023-08-06T06:22:14;99404.59;;;35.91;100.00
69848;BME280;57143;55.940;37.496;2023-08-06T06:24:41;99384.69;;;35.73;100.00
69848;BME280;57143;55.940;37.496;2023-08-06T06:27:08;99369.38;;;35.74;100.00
69848;BME280;57143;55.940;37.496;2023-08-06T06:29:38;99327.59;;;35.90;100.00
69848;BME280;57143;55.940;37.496;2023-08-06T06:32:06;99293.41;;;36.06;100.00
69848;BME280;57143;55.940;37.496;2023-08-06T06:34:33;99281.22;;;35.88;100.00
69848;BME280;57143;55.940;37.496;2023-08-06T06:37:00;99302.44;;;35.68;100.00
69848;BME280;57143;55.940;37.496;2023-08-06T06:39:27;99296.41;;;35.73;100.00
69848;BME280;57143;55.940;37.496;2023-08-06T06:41:55;99334.13;;;35.47;100.00
69848;BME280;57143;55.940;37.496;2023-08-06T06:44:22;99267.16;;;35.34;100.00
69848;BME280;57143;55.940;37.496;2023-08-06T06:46:51;99248.59;;;35.29;100.00
69848;BME280;57143;55.940;37.496;2023-08-06T06:49:18;99287.78;;;35.41;100.00
69848;BME280;57143;55.940;37.496;2023-08-06T06:51:45;99200.09;;;35.71;100.00
69848;BME280;57143;55.940;37.496;2023-08-06T06:54:12;99171.59;;;35.90;100.00
69848;BME280;57143;55.940;37.496;2023-08-06T06:56:39;99143.78;;;35.92;100.00
69848;BME280;57143;55.940;37.496;2023-08-06T06:59:06;99173.38;;;35.40;100.00
69848;BME280;57143;55.940;37.496;2023-08-06T07:01:34;99164.59;;;35.56;100.00
69848;BME280;57143;55.940;37.496;2023-08-06T07:04:02;99151.75;;;35.62;100.00
69848;BME280;57143;55.940;37.496;2023-08-06T07:06:31;99174.09;;;35.27;100.00
69848;BME280;57143;55.940;37.496;2023-08-06T07:08:58;99157.38;;;35.62;100.00
69848;BME280;57143;55.940;37.496;2023-08-06T07:11:25;99141.97;;;35.42;100.00
69848;BME280;57143;55.940;37.496;2023-08-06T07:13:56;99156.28;;;35.16;100.00
69848;BME280;57143;55.940;37.496;2023-08-06T07:16:24;99139.38;;;35.12;100.00
69848;BME280;57143;55.940;37.496;2023-08-06T07:18:51;99172.53;;;34.78;100.00
69848;BME280;57143;55.940;37.496;2023-08-06T07:21:21;99126.88;;;35.06;100.00
69848;BME280;57143;55.940;37.496;2023-08-06T07:23:48;99165.13;;;35.11;100.00
69848;BME280;57143;55.940;37.496;2023-08-06T07:26:16;99128.44;;;35.04;100.00
69848;BME280;57143;55.940;37.496;2023-08-06T07:28:43;99100.28;;;35.04;100.00
69848;BME280;57143;55.940;37.496;2023-08-06T07:31:10;99063.44;;;35.44;100.00
69848;BME280;57143;55.940;37.496;2023-08-06T07:33:38;99025.13;;;35.36;100.00
69848;BME280;57143;55.940;37.496;2023-08-06T07:36:09;99043.13;;;35.03;100.00
69848;BME280;57143;55.940;37.496;2023-08-06T07:38:38;99028.72;;;35.19;100.00
69848;BME280;57143;55.940;37.496;2023-08-06T07:41:05;99023.47;;;35.24;100.00
69848;BME280;57143;55.940;37.496;2023-08-06T07:43:32;99018.59;;;35.14;100.00
69848;BME280;57143;55.940;37.496;2023-08-06T07:46:01;99048.16;;;34.73;100.00
69848;BME280;57143;55.940;37.496;2023-08-06T07:48:29;99047.41;;;34.83;100.00
69848;BME280;57143;55.940;37.496;2023-08-06T07:50:57;99030.19;;;34.95;100.00
69848;BME280;57143;55.940;37.496;2023-08-06T07:53:25;99034.50;;;34.75;100.00
69848;BME280;57143;55.940;37.496;2023-08-06T07:55:56;99022.63;;;35.10;100.00
69848;BME280;57143;55.940;37.496;2023-08-06T07:58:25;99011.75;;;35.05;100.00
69848;BME280;57143;55.940;37.496;2023-08-06T08:00:52;99012.56;;;35.12;100.00
69848;BME280;57143;55.940;37.496;2023-08-06T08:03:19;98978.38;;;35.28;100.00
69848;BME280;57143;55.940;37.496;2023-08-06T08:05:47;98985.03;;;34.77;100.00
69848;BME280;57143;55.940;37.496;2023-08-06T08:08:14;98964.25;;;35.07;100.00
69848;BME280;57143;55.940;37.496;2023-08-06T08:10:41;98961.84;;;35.05;100.00
69848;BME280;57143;55.940;37.496;2023-08-06T08:13:10;98954.50;;;34.90;100.00
69848;BME280;57143;55.940;37.496;2023-08-06T08:15:37;98949.38;;;35.10;100.00
69848;BME280;57143;55.940;37.496;2023-08-06T08:18:05;98989.72;;;34.52;100.00
69848;BME280;57143;55.940;37.496;2023-08-06T08:20:32;99042.25;;;34.34;100.00
69848;BME280;57143;55.940;37.496;2023-08-06T08:23:01;99066.06;;;34.00;100.00
69848;BME280;57143;55.940;37.496;2023-08-06T08:25:28;99046.97;;;34.20;100.00
69848;BME280;57143;55.940;37.496;2023-08-06T08:27:57;99075.84;;;33.73;100.00
69848;BME280;57143;55.940;37.496;2023-08-06T08:30:26;99053.56;;;33.94;100.00
69848;BME280;57143;55.940;37.496;2023-08-06T08:32:53;99063.34;;;34.11;100.00
69848;BME280;57143;55.940;37.496;2023-08-06T08:35:20;99020.53;;;34.35;100.00
69848;BME280;57143;55.940;37.496;2023-08-06T08:37:47;99013.97;;;34.74;100.00
69848;BME280;57143;55.940;37.496;2023-08-06T08:40:15;99038.72;;;33.97;100.00
69848;BME280;57143;55.940;37.496;2023-08-06T08:42:42;99051.06;;;33.85;100.00
69848;BME280;57143;55.940;37.496;2023-08-06T08:45:11;99029.13;;;34.02;100.00
69848;BME280;57143;55.940;37.496;2023-08-06T08:47:42;99055.47;;;33.86;100.00
69848;BME280;57143;55.940;37.496;2023-08-06T08:50:10;99053.38;;;34.17;100.00
69848;BME280;57143;55.940;37.496;2023-08-06T08:52:39;99066.16;;;34.11;100.00
69848;BME280;57143;55.940;37.496;2023-08-06T08:55:08;99071.59;;;33.53;100.00
69848;BME280;57143;55.940;37.496;2023-08-06T08:57:35;99125.94;;;33.34;100.00
69848;BME280;57143;55.940;37.496;2023-08-06T09:00:03;99213.66;;;32.95;100.00
69848;BME280;57143;55.940;37.496;2023-08-06T09:02:33;99226.38;;;32.89;100.00
69848;BME280;57143;55.940;37.496;2023-08-06T09:05:03;99253.97;;;32.83;100.00
69848;BME280;57143;55.940;37.496;2023-08-06T09:07:35;99304.72;;;32.52;100.00
69848;BME280;57143;55.940;37.496;2023-08-06T09:10:07;99325.19;;;32.33;100.00
69848;BME280;57143;55.940;37.496;2023-08-06T09:12:37;99376.13;;;32.16;100.00
69848;BME280;57143;55.940;37.496;2023-08-06T09:15:05;99390.00;;;32.09;100.00
69848;BME280;57143;55.940;37.496;2023-08-06T09:17:33;99431.31;;;32.12;100.00
69848;BME280;57143;55.940;37.496;2023-08-06T09:20:10;99429.09;;;32.02;100.00
69848;BME280;57143;55.940;37.496;2023-08-06T09:22:38;99488.34;;;31.85;100.00
69848;BME280;57143;55.940;37.496;2023-08-06T09:25:06;99489.09;;;31.98;100.00
69848;BME280;57143;55.940;37.496;2023-08-06T09:27:35;99508.47;;;31.87;100.00
69848;BME280;57143;55.940;37.496;2023-08-06T09:30:04;99490.25;;;31.97;100.00
69848;BME280;57143;55.940;37.496;2023-08-06T09:32:45;99451.75;;;32.28;100.00
69848;BME280;57143;55.940;37.496;2023-08-06T09:35:18;99444.41;;;32.05;100.00
69848;BME280;57143;55.940;37.496;2023-08-06T09:37:46;99474.63;;;31.80;100.00
69848;BME280;57143;55.940;37.496;2023-08-06T09:40:26;99465.47;;;31.99;100.00
69848;BME280;57143;55.940;37.496;2023-08-06T09:42:53;99443.09;;;32.18;100.00
69848;BME280;57143;55.940;37.496;2023-08-06T09:45:21;99440.28;;;32.18;100.00
69848;BME280;57143;55.940;37.496;2023-08-06T09:47:49;99445.97;;;32.21;100.00
69848;BME280;57143;55.940;37.496;2023-08-06T09:50:18;99436.19;;;32.15;100.00
69848;BME280;57143;55.940;37.496;2023-08-06T09:52:46;99459.38;;;32.12;100.00
69848;BME280;57143;55.940;37.496;2023-08-06T09:55:14;99446.53;;;32.11;100.00
69848;BME280;57143;55.940;37.496;2023-08-06T09:57:42;99461.81;;;32.14;100.00
69848;BME280;57143;55.940;37.496;2023-08-06T10:00:10;99552.69;;;31.94;100.00
69848;BME280;57143;55.940;37.496;2023-08-06T10:02:40;99520.94;;;31.90;100.00
69848;BME280;57143;55.940;37.496;2023-08-06T10:05:08;99551.56;;;32.14;100.00
69848;BME280;57143;55.940;37.496;2023-08-06T10:07:37;99510.28;;;32.45;100.00
69848;BME280;57143;55.940;37.496;2023-08-06T10:10:06;99504.00;;;32.36;100.00
69848;BME280;57143;55.940;37.496;2023-08-06T10:12:37;99513.63;;;32.35;100.00
69848;BME280;57143;55.940;37.496;2023-08-06T10:15:09;99502.06;;;32.21;100.00
69848;BME280;57143;55.940;37.496;2023-08-06T10:17:38;99521.00;;;32.09;100.00
69848;BME280;57143;55.940;37.496;2023-08-06T10:20:07;99511.06;;;32.11;100.00
69848;BME280;57143;55.940;37.496;2023-08-06T10:22:36;99523.88;;;32.28;100.00
69848;BME280;57143;55.940;37.496;2023-08-06T10:25:09;99541.25;;;31.87;100.00
69848;BME280;57143;55.940;37.496;2023-08-06T10:27:40;99520.53;;;32.07;100.00
69848;BME280;57143;55.940;37.496;2023-08-06T10:30:24;99560.78;;;31.83;100.00
69848;BME280;57143;55.940;37.496;2023-08-06T10:32:53;99597.81;;;31.89;100.00
69848;BME280;57143;55.940;37.496;2023-08-06T10:35:35;99630.31;;;31.78;100.00
69848;BME280;57143;55.940;37.496;2023-08-06T10:38:09;99619.75;;;31.87;100.00
69848;BME280;57143;55.940;37.496;2023-08-06T10:40:36;99591.56;;;31.95;100.00
69848;BME280;57143;55.940;37.496;2023-08-06T10:43:04;99539.56;;;31.98;100.00
69848;BME280;57143;55.940;37.496;2023-08-06T10:45:35;99490.78;;;31.87;100.00
69848;BME280;57143;55.940;37.496;2023-08-06T10:48:02;99503.81;;;32.10;100.00
69848;BME280;57143;55.940;37.496;2023-08-06T10:50:30;99485.69;;;32.23;100.00
69848;BME280;57143;55.940;37.496;2023-08-06T10:52:58;99523.44;;;32.10;100.00
69848;BME280;57143;55.940;37.496;2023-08-06T10:55:32;99569.41;;;31.90;100.00
69848;BME280;57143;55.940;37.496;2023-08-06T10:58:00;99593.50;;;31.79;100.00
69848;BME280;57143;55.940;37.496;2023-08-06T11:00:27;99578.81;;;31.82;100.00
69848;BME280;57143;55.940;37.496;2023-08-06T11:02:54;99580.38;;;31.52;100.00
69848;BME280;57143;55.940;37.496;2023-08-06T11:05:21;99571.88;;;31.48;100.00
69848;BME280;57143;55.940;37.496;2023-08-06T11:07:49;99562.66;;;31.48;100.00
69848;BME280;57143;55.940;37.496;2023-08-06T11:10:17;99549.75;;;31.59;100.00
69848;BME280;57143;55.940;37.496;2023-08-06T11:12:46;99535.09;;;31.65;100.00
69848;BME280;57143;55.940;37.496;2023-08-06T11:15:14;99519.66;;;31.72;100.00
69848;BME280;57143;55.940;37.496;2023-08-06T11:17:41;99499.09;;;31.83;100.00
69848;BME280;57143;55.940;37.496;2023-08-06T11:20:09;99512.69;;;31.97;100.00
69848;BME280;57143;55.940;37.496;2023-08-06T11:22:37;99495.13;;;32.00;100.00
69848;BME280;57143;55.940;37.496;2023-08-06T11:25:06;99472.88;;;32.07;100.00
69848;BME280;57143;55.940;37.496;2023-08-06T11:27:33;99472.56;;;32.12;100.00
69848;BME280;57143;55.940;37.496;2023-08-06T11:30:02;99464.78;;;32.21;100.00
69848;BME280;57143;55.940;37.496;2023-08-06T11:32:31;99472.50;;;32.08;100.00
69848;BME280;57143;55.940;37.496;2023-08-06T11:34:59;99487.34;;;32.09;100.00
69848;BME280;57143;55.940;37.496;2023-08-06T11:37:36;99472.78;;;32.03;100.00
69848;BME280;57143;55.940;37.496;2023-08-06T11:40:08;99469.47;;;31.98;100.00
69848;BME280;57143;55.940;37.496;2023-08-06T11:42:37;99463.75;;;32.10;100.00
69848;BME280;57143;55.940;37.496;2023-08-06T11:45:07;99476.31;;;32.00;100.00
69848;BME280;57143;55.940;37.496;2023-08-06T11:47:38;99487.53;;;32.00;100.00
69848;BME280;57143;55.940;37.496;2023-08-06T11:50:07;99478.59;;;31.95;100.00
69848;BME280;57143;55.940;37.496;2023-08-06T11:52:34;99446.47;;;32.08;100.00
69848;BME280;57143;55.940;37.496;2023-08-06T11:55:07;99457.63;;;31.89;100.00
69848;BME280;57143;55.940;37.496;2023-08-06T11:57:37;99442.59;;;31.97;100.00
69848;BME280;57143;55.940;37.496;2023-08-06T12:00:09;99432.88;;;32.10;100.00
69848;BME280;57143;55.940;37.496;2023-08-06T12:02:39;99458.25;;;31.98;100.00
69848;BME280;57143;55.940;37.496;2023-08-06T12:05:11;99463.38;;;32.11;100.00
69848;BME280;57143;55.940;37.496;2023-08-06T12:07:40;99484.00;;;32.03;100.00
69848;BME280;57143;55.940;37.496;2023-08-06T12:10:09;99452.47;;;31.91;100.00
69848;BME280;57143;55.940;37.496;2023-08-06T12:12:36;99469.09;;;31.84;100.00
69848;BME280;57143;55.940;37.496;2023-08-06T12:15:07;99501.00;;;31.63;100.00
69848;BME280;57143;55.940;37.496;2023-08-06T12:17:35;99475.97;;;31.70;100.00
69848;BME280;57143;55.940;37.496;2023-08-06T12:20:03;99494.78;;;31.70;100.00
69848;BME280;57143;55.940;37.496;2023-08-06T12:22:31;99519.38;;;31.61;100.00
69848;BME280;57143;55.940;37.496;2023-08-06T12:25:01;99526.88;;;31.57;100.00
69848;BME280;57143;55.940;37.496;2023-08-06T12:27:30;99545.56;;;31.37;100.00
69848;BME280;57143;55.940;37.496;2023-08-06T12:29:57;99584.56;;;31.30;100.00
69848;BME280;57143;55.940;37.496;2023-08-06T12:32:26;99585.19;;;31.12;100.00
69848;BME280;57143;55.940;37.496;2023-08-06T12:34:53;99581.06;;;31.33;100.00
69848;BME280;57143;55.940;37.496;2023-08-06T12:37:20;99568.34;;;31.51;100.00
69848;BME280;57143;55.940;37.496;2023-08-06T12:39:48;99547.50;;;31.80;100.00
69848;BME280;57143;55.940;37.496;2023-08-06T12:42:15;99526.91;;;31.88;100.00
69848;BME280;57143;55.940;37.496;2023-08-06T12:44:43;99522.47;;;31.87;100.00